Time;durP1;ratioP1;P1;durP2;ratioP2;P2;SDS_P1;SDS_P2;PMS_P1;PMS_P2;Temp;Humidity;BMP_temperature;BMP_pressure;BME280_temperature;BME280_humidity;BME280_pressure;Samples;Min_cycle;Max_cycle;Signal;HPM_P1;HPM_P2
2023/08/07 00:09:07;;;;;;;12.95;5.68;;;14.00;99.90;;;;;;6164444;23;20025;-86
2023/08/07 00:16:13;;;;;;;14.52;6.22;;;13.70;99.90;;;;;;6243330;23;20091;-87
2023/08/07 00:20:05;;;;;;;14.25;6.97;;;14.10;99.90;;;;;;6175287;23;20032;-87
2023/08/07 00:22:48;;;;;;;17.45;6.97;;;14.10;99.90;;;;;;6083501;23;20341;-87
2023/08/07 00:31:59;;;;;;;13.13;6.70;;;14.20;99.90;;;;;;6304364;22;20019;-87
2023/08/07 00:34:46;;;;;;;12.65;6.90;;;14.20;99.90;;;;;;6182451;23;20036;-87
2023/08/07 00:40:52;;;;;;;12.20;5.93;;;14.30;99.90;;;;;;6157817;23;20025;-87
2023/08/07 00:43:49;;;;;;;;;;;;;;;;;;;;;
2023/08/07 00:50:56;;;;;;;;;;;;;;;;;;;;;
2023/08/07 00:54:21;;;;;;;11.85;5.93;;;14.40;99.90;;;;;;6046227;23;20019;-87
2023/08/07 01:01:08;;;;;;;13.18;6.55;;;14.40;99.90;;;;;;6023328;22;20026;-87
2023/08/07 01:14:29;;;;;;;13.13;6.10;;;14.50;99.90;;;;;;6302603;22;20019;-87
2023/08/07 01:17:42;;;;;;;11.88;6.38;;;14.40;99.90;;;;;;6299957;22;20011;-87
2023/08/07 01:20:56;;;;;;;12.30;5.75;;;14.40;99.90;;;;;;6278204;22;20026;-87
2023/08/07 01:23:50;;;;;;;11.18;5.45;;;14.40;99.90;;;;;;6241433;22;20011;-86
2023/08/07 01:27:11;;;;;;;14.23;6.28;;;14.30;99.90;;;;;;6277383;22;20019;-87
2023/08/07 01:37:15;;;;;;;12.27;5.43;;;13.80;99.90;;;;;;6276786;22;20019;-87
2023/08/07 01:54:32;;;;;;;12.02;5.03;;;14.20;99.90;;;;;;6275810;22;20025;-86
2023/08/07 02:03:49;;;;;;;10.88;5.15;;;15.10;99.90;;;;;;6303657;22;20023;-88
2023/08/07 02:12:05;;;;;;;10.80;4.97;;;14.20;99.90;;;;;;6286019;22;20034;-87
2023/08/07 02:19:05;;;;;;;17.17;5.30;;;14.20;99.90;;;;;;6215942;23;20092;-87
2023/08/07 02:22:09;;;;;;;11.38;4.80;;;14.20;99.90;;;;;;6188565;23;20336;-87
2023/08/07 02:28:48;;;;;;;10.55;4.55;;;14.20;99.90;;;;;;6224581;22;20023;-87
2023/08/07 02:35:10;;;;;;;14.82;4.25;;;14.10;99.90;;;;;;6275184;22;20023;-87
2023/08/07 02:38:01;;;;;;;14.85;4.55;;;14.20;99.90;;;;;;6304938;22;20037;-87
2023/08/07 02:49:01;;;;;;;;;;;;;;;;;;;;;
2023/08/07 03:03:38;;;;;;;14.02;3.65;;;14.10;99.90;;;;;;6301704;22;20126;-88
2023/08/07 03:10:48;;;;;;;12.80;3.30;;;14.10;99.90;;;;;;6291733;22;20046;-88
2023/08/07 03:17:02;;;;;;;12.55;3.15;;;13.80;99.90;;;;;;6262841;22;20022;-88
2023/08/07 03:20:09;;;;;;;14.15;3.50;;;14.00;99.90;;;;;;6280163;22;20015;-87
2023/08/07 03:22:54;;;;;;;17.15;3.33;;;14.40;99.90;;;;;;6280103;22;20019;-87
2023/08/07 03:25:41;;;;;;;15.73;3.38;;;14.00;99.90;;;;;;6307609;22;20019;-88
2023/08/07 03:32:26;;;;;;;12.70;3.22;;;14.00;99.90;;;;;;6303685;22;20019;-88
2023/08/07 03:35:42;;;;;;;12.57;3.15;;;14.10;99.90;;;;;;6212999;23;20038;-88
2023/08/07 03:38:25;;;;;;;11.10;3.40;;;13.90;99.90;;;;;;6122336;23;20018;-87
2023/08/07 03:41:50;;;;;;;13.68;3.45;;;13.90;99.90;;;;;;6154221;23;20020;-88
2023/08/07 03:44:27;;;;;;;11.57;3.40;;;13.40;99.90;;;;;;6188543;23;20016;-88
2023/08/07 03:50:38;;;;;;;13.90;3.60;;;13.90;99.90;;;;;;6213463;23;20063;-88
2023/08/07 03:54:00;;;;;;;15.23;3.20;;;13.80;99.90;;;;;;6212891;23;20020;-88
2023/08/07 03:56:43;;;;;;;13.00;3.17;;;13.60;99.90;;;;;;6153028;23;20079;-87
2023/08/07 04:00:13;;;;;;;15.27;3.42;;;13.70;99.90;;;;;;6015586;23;20095;-88
2023/08/07 04:03:47;;;;;;;12.57;3.15;;;13.70;99.90;;;;;;6015894;23;20026;-88
2023/08/07 04:07:14;;;;;;;;;;;;;;;;;;;;;
2023/08/07 04:18:11;;;;;;;12.50;3.17;;;13.10;99.90;;;;;;6240771;23;20105;-88
2023/08/07 04:20:56;;;;;;;11.70;3.30;;;13.70;99.90;;;;;;6237295;22;20023;-88
2023/08/07 04:27:45;;;;;;;13.82;3.08;;;13.30;99.90;;;;;;6054725;23;20031;-89
2023/08/07 04:31:00;;;;;;;11.10;3.10;;;13.80;99.90;;;;;;6012280;23;20019;-88
2023/08/07 04:34:10;;;;;;;12.27;3.38;;;13.70;99.90;;;;;;5952911;24;20029;-88
2023/08/07 04:51:54;;;;;;;14.80;3.35;;;14.00;99.90;;;;;;6300773;22;20026;-87
2023/08/07 05:17:44;;;;;;;11.55;3.08;;;14.00;99.90;;;;;;6125777;22;20418;-85
2023/08/07 05:20:46;;;;;;;11.68;3.00;;;14.00;99.90;;;;;;6121580;23;20029;-86
2023/08/07 05:23:30;;;;;;;12.15;3.20;;;14.80;99.90;;;;;;6223537;23;20479;-85
2023/08/07 05:25:56;;;;;;;12.95;3.97;;;14.80;99.90;;;;;;6221908;23;20021;-84
2023/08/07 05:31:51;;;;;;;13.65;3.47;;;14.00;99.90;;;;;;6273297;22;20027;-85
2023/08/07 05:34:29;;;;;;;13.77;3.47;;;14.00;99.90;;;;;;6249127;22;20024;-85
2023/08/07 05:37:09;;;;;;;12.90;3.70;;;15.20;99.90;;;;;;6276267;22;20055;-86
2023/08/07 05:39:47;;;;;;;12.60;4.32;;;14.20;99.90;;;;;;6275871;22;20054;-84
2023/08/07 05:42:24;;;;;;;15.02;4.03;;;15.50;99.90;;;;;;6249254;22;20352;-86
2023/08/07 05:44:59;;;;;;;12.80;3.58;;;14.50;99.90;;;;;;6248171;22;20439;-86
2023/08/07 05:47:40;;;;;;;13.88;3.75;;;14.50;99.90;;;;;;6247499;22;20047;-85
2023/08/07 05:50:26;;;;;;;12.98;3.83;;;14.60;99.90;;;;;;6248625;22;20100;-85
2023/08/07 05:53:02;;;;;;;14.23;3.33;;;14.60;99.90;;;;;;6247302;22;20019;-86
2023/08/07 05:55:30;;;;;;;11.30;3.55;;;15.00;99.90;;;;;;6248684;22;20448;-86
2023/08/07 05:58:33;;;;;;;15.07;3.80;;;15.60;99.90;;;;;;6248120;22;20066;-86
2023/08/07 06:02:00;;;;;;;14.18;3.83;;;15.00;99.90;;;;;;6275192;22;20051;-87
2023/08/07 06:09:46;;;;;;;14.43;3.80;;;14.30;99.90;;;;;;6293111;22;20034;-83
2023/08/07 06:12:12;;;;;;;11.35;3.28;;;14.30;99.90;;;;;;6278925;22;20068;-84
2023/08/07 06:18:38;;;;;;;16.70;3.90;;;14.10;99.90;;;;;;6275063;22;20525;-85
2023/08/07 06:21:06;;;;;;;14.75;4.00;;;14.30;99.90;;;;;;6247466;22;20019;-85
2023/08/07 06:23:36;;;;;;;10.98;3.45;;;14.30;99.90;;;;;;6274422;22;20437;-84
2023/08/07 06:33:28;;;;;;;11.13;3.42;;;14.30;99.90;;;;;;6307795;22;20029;-84
2023/08/07 06:39:17;;;;;;;13.32;3.70;;;14.40;99.90;;;;;;6159269;23;20347;-83
2023/08/07 06:41:43;;;;;;;15.63;3.65;;;14.60;99.90;;;;;;6183659;23;20024;-83
2023/08/07 06:44:09;;;;;;;15.60;4.10;;;14.50;99.90;;;;;;6207828;23;20021;-82
2023/08/07 06:46:46;;;;;;;13.63;3.75;;;14.60;99.90;;;;;;6181331;23;20021;-82
2023/08/07 06:49:12;;;;;;;12.60;3.70;;;15.70;99.90;;;;;;6266778;22;20015;-83
2023/08/07 06:51:52;;;;;;;14.38;3.75;;;14.80;99.90;;;;;;6280625;22;20022;-83
2023/08/07 06:54:27;;;;;;;15.65;4.40;;;14.60;99.90;;;;;;6281092;22;20027;-83
2023/08/07 06:56:53;;;;;;;11.73;3.80;;;14.70;99.90;;;;;;6279722;22;20098;-83
2023/08/07 06:59:19;;;;;;;14.00;3.70;;;14.70;99.90;;;;;;6280660;22;20048;-83
2023/08/07 07:01:44;;;;;;;13.98;3.95;;;14.70;99.90;;;;;;6307589;22;20015;-83
2023/08/07 07:04:10;;;;;;;16.08;3.50;;;15.50;99.90;;;;;;6279885;22;20020;-83
2023/08/07 07:06:37;;;;;;;13.75;3.67;;;14.90;99.90;;;;;;6280326;22;20015;-83
2023/08/07 07:09:05;;;;;;;18.67;3.97;;;15.90;99.90;;;;;;6280902;22;20104;-82
2023/08/07 07:11:31;;;;;;;15.88;3.92;;;15.10;99.90;;;;;;6280058;22;20064;-83
2023/08/07 07:13:57;;;;;;;12.07;4.38;;;15.10;99.90;;;;;;6307497;22;20023;-82
2023/08/07 07:16:22;;;;;;;15.85;3.70;;;15.30;99.90;;;;;;6279526;22;20011;-83
2023/08/07 07:19:16;;;;;;;9.48;3.15;;;15.80;99.90;;;;;;6279386;22;20046;-83
2023/08/07 07:21:42;;;;;;;13.80;3.47;;;14.90;99.90;;;;;;6260763;22;20011;-82
2023/08/07 07:24:07;;;;;;;12.45;3.25;;;14.90;99.90;;;;;;6279716;22;20057;-82
2023/08/07 07:26:39;;;;;;;11.82;3.20;;;15.00;99.90;;;;;;6308259;22;20470;-83
2023/08/07 07:29:05;;;;;;;15.55;3.50;;;15.10;99.90;;;;;;6307355;22;20094;-83
2023/08/07 07:31:30;;;;;;;16.48;3.90;;;15.00;99.90;;;;;;6279750;22;20054;-83
2023/08/07 07:33:56;;;;;;;10.85;3.13;;;15.30;99.90;;;;;;6280206;22;20018;-83
2023/08/07 07:36:21;;;;;;;11.15;3.53;;;15.30;99.90;;;;;;6307736;22;20103;-83
2023/08/07 07:38:47;;;;;;;15.32;3.63;;;16.00;99.90;;;;;;6278236;22;20011;-81
2023/08/07 07:41:14;;;;;;;12.43;3.50;;;15.90;99.90;;;;;;6306465;22;20390;-83
2023/08/07 07:43:40;;;;;;;12.45;3.45;;;15.50;99.90;;;;;;6279635;22;20396;-82
2023/08/07 07:46:06;;;;;;;11.70;3.20;;;15.60;99.90;;;;;;6306878;22;20019;-82
2023/08/07 07:48:31;;;;;;;12.85;2.95;;;15.50;99.90;;;;;;6280520;22;20023;-83
2023/08/07 07:51:01;;;;;;;9.48;3.28;;;15.50;99.90;;;;;;6278438;22;20011;-85
2023/08/07 07:53:27;;;;;;;10.35;3.00;;;15.50;99.90;;;;;;6305570;22;20156;-86
2023/08/07 07:56:18;;;;;;;9.23;3.05;;;15.70;99.90;;;;;;6280268;22;20452;-85
2023/08/07 07:58:46;;;;;;;14.88;3.15;;;15.20;99.90;;;;;;6289241;22;20069;-82
2023/08/07 08:01:12;;;;;;;8.98;2.35;;;15.90;99.90;;;;;;6278857;22;20015;-82
2023/08/07 08:03:38;;;;;;;10.52;2.88;;;15.90;99.90;;;;;;6279759;22;20027;-82
2023/08/07 08:06:04;;;;;;;8.98;2.20;;;16.00;99.90;;;;;;6280253;22;20096;-82
2023/08/07 08:08:30;;;;;;;8.90;2.10;;;16.00;99.90;;;;;;6279663;22;20011;-83
2023/08/07 08:10:55;;;;;;;7.70;2.13;;;16.00;99.90;;;;;;6279998;22;20068;-83
2023/08/07 08:13:22;;;;;;;9.55;2.38;;;16.70;99.90;;;;;;6311123;22;20458;-84
2023/08/07 08:15:47;;;;;;;8.27;2.20;;;15.90;99.90;;;;;;6285647;22;20015;-86
2023/08/07 08:18:13;;;;;;;7.85;2.30;;;15.90;99.90;;;;;;6307982;22;20022;-83
2023/08/07 08:20:39;;;;;;;9.52;2.33;;;16.00;99.90;;;;;;6278837;22;20008;-84
2023/08/07 08:23:05;;;;;;;10.50;2.58;;;16.10;99.90;;;;;;6280321;22;20018;-83
2023/08/07 08:25:32;;;;;;;10.93;2.58;;;16.30;99.90;;;;;;6280251;22;20015;-85
2023/08/07 08:27:59;;;;;;;12.43;2.45;;;16.30;99.90;;;;;;6279921;22;20321;-83
2023/08/07 08:30:25;;;;;;;9.43;2.78;;;16.30;99.90;;;;;;6307742;22;20015;-83
2023/08/07 08:32:50;;;;;;;8.45;2.47;;;16.40;99.90;;;;;;6307495;22;20462;-84
2023/08/07 08:35:18;;;;;;;10.85;2.45;;;16.40;99.90;;;;;;6279396;22;20015;-85
2023/08/07 08:37:44;;;;;;;7.82;2.22;;;16.40;99.90;;;;;;6279815;22;20104;-83
2023/08/07 08:40:12;;;;;;;7.57;2.10;;;16.90;99.90;;;;;;6279754;22;20015;-83
2023/08/07 08:42:40;;;;;;;10.13;2.28;;;16.40;99.90;;;;;;6306089;22;20015;-83
2023/08/07 08:45:10;;;;;;;8.55;2.30;;;16.50;99.90;;;;;;6306828;22;20018;-84
2023/08/07 08:47:37;;;;;;;10.10;2.40;;;16.40;99.90;;;;;;6279120;22;20077;-86
2023/08/07 08:50:06;;;;;;;9.48;2.65;;;16.40;99.90;;;;;;6278936;22;20064;-84
2023/08/07 08:52:34;;;;;;;11.63;2.65;;;16.50;99.90;;;;;;6279969;22;20094;-83
2023/08/07 08:55:01;;;;;;;8.70;2.38;;;16.60;99.90;;;;;;6279019;22;20099;-83
2023/08/07 08:57:32;;;;;;;9.93;2.53;;;16.50;99.90;;;;;;6305801;22;20339;-83
2023/08/07 08:59:59;;;;;;;11.10;2.60;;;16.20;99.90;;;;;;6306791;22;20016;-84
2023/08/07 09:02:26;;;;;;;9.35;2.78;;;15.50;99.90;;;;;;6306843;22;20432;-83
2023/08/07 09:04:51;;;;;;;11.82;3.13;;;14.90;99.90;;;;;;6278688;22;20043;-85
2023/08/07 09:07:19;;;;;;;11.57;2.92;;;14.50;99.90;;;;;;6306433;22;20012;-85
2023/08/07 09:09:47;;;;;;;11.68;3.30;;;14.60;99.90;;;;;;6304142;22;20019;-85
2023/08/07 09:12:31;;;;;;;11.65;3.10;;;14.20;99.90;;;;;;6280012;22;20015;-84
2023/08/07 09:14:57;;;;;;;;;;;14.10;99.90;;;;;;6279965;22;20058;-83
2023/08/07 09:17:31;;;;;;;14.38;3.78;;;14.20;99.90;;;;;;6306531;22;19918;-85
2023/08/07 09:19:59;;;;;;;11.43;3.42;;;14.80;99.90;;;;;;6307026;22;20022;-83
2023/08/07 09:22:25;;;;;;;13.98;3.58;;;14.90;99.90;;;;;;6307664;22;20018;-83
2023/08/07 09:24:51;;;;;;;12.07;3.17;;;15.30;99.90;;;;;;6305960;22;20012;-85
2023/08/07 09:27:16;;;;;;;12.35;2.92;;;15.50;99.90;;;;;;6279361;22;20011;-85
2023/08/07 09:29:59;;;;;;;11.32;2.90;;;15.50;99.90;;;;;;6276350;22;20015;-85
2023/08/07 09:32:30;;;;;;;9.98;2.72;;;16.30;99.90;;;;;;6278485;22;20098;-83
2023/08/07 09:34:59;;;;;;;13.75;3.28;;;15.80;99.90;;;;;;6306946;22;20051;-83
2023/08/07 09:37:24;;;;;;;12.90;3.20;;;16.30;99.90;;;;;;6279881;22;20007;-83
2023/08/07 09:39:51;;;;;;;10.52;3.30;;;16.30;99.90;;;;;;6277833;22;20137;-83
2023/08/07 09:42:37;;;;;;;14.20;3.03;;;16.30;99.90;;;;;;6279406;22;20526;-82
2023/08/07 09:45:27;;;;;;;9.40;2.70;;;16.60;99.90;;;;;;6276995;22;20015;-84
2023/08/07 09:47:57;;;;;;;10.30;3.30;;;16.80;99.90;;;;;;6306265;22;20133;-83
2023/08/07 09:50:41;;;;;;;11.45;3.15;;;16.80;99.90;;;;;;6306718;22;20056;-83
2023/08/07 09:53:16;;;;;;;12.90;3.13;;;16.60;99.90;;;;;;6278496;22;20025;-84
2023/08/07 09:56:02;;;;;;;8.70;2.65;;;17.40;99.90;;;;;;6278248;22;20026;-83
2023/08/07 09:58:43;;;;;;;11.43;2.75;;;16.80;99.90;;;;;;6305508;22;20026;-84
2023/08/07 10:01:09;;;;;;;8.10;2.47;;;16.80;99.90;;;;;;6305572;22;20018;-82
2023/08/07 10:03:59;;;;;;;9.23;2.50;;;17.40;99.90;;;;;;6275442;22;20027;-82
2023/08/07 10:06:30;;;;;;;8.98;2.40;;;17.10;99.90;;;;;;6304855;22;20055;-81
2023/08/07 10:09:00;;;;;;;11.20;2.85;;;17.70;99.90;;;;;;6277975;22;20012;-83
2023/08/07 10:11:48;;;;;;;12.27;2.50;;;17.20;99.90;;;;;;6306717;22;20015;-83
2023/08/07 10:14:36;;;;;;;11.35;2.88;;;17.40;99.90;;;;;;6304039;22;20065;-84
2023/08/07 10:17:17;;;;;;;11.23;2.92;;;17.70;99.90;;;;;;6278409;22;20019;-84
2023/08/07 10:19:43;;;;;;;9.18;2.60;;;17.80;99.90;;;;;;6303177;22;20023;-83
2023/08/07 10:22:09;;;;;;;11.02;2.80;;;18.00;99.90;;;;;;6277218;22;20039;-83
2023/08/07 10:25:26;;;;;;;12.55;2.78;;;17.90;99.90;;;;;;6274615;22;20023;-82
2023/08/07 10:27:56;;;;;;;11.77;2.55;;;17.60;99.90;;;;;;6278175;22;20089;-84
2023/08/07 10:30:33;;;;;;;11.15;2.95;;;17.40;99.90;;;;;;6304930;22;20015;-84
2023/08/07 10:33:36;;;;;;;13.50;2.90;;;17.50;99.90;;;;;;6278967;22;20501;-86
2023/08/07 10:36:55;;;;;;;9.48;2.50;;;17.40;99.90;;;;;;6278296;22;20054;-86
2023/08/07 10:39:58;;;;;;;10.73;2.65;;;17.20;99.90;;;;;;6228070;22;20381;-86
2023/08/07 10:45:31;;;;;;;;;;;;;;;;;;;;;
2023/08/07 10:48:18;;;;;;;11.13;2.83;;;17.60;99.90;;;;;;6234222;22;20447;-85
2023/08/07 10:50:57;;;;;;;10.25;2.70;;;18.00;99.90;;;;;;6278720;22;20324;-83
2023/08/07 10:53:35;;;;;;;11.27;2.72;;;18.30;99.90;;;;;;6278959;22;20061;-85
2023/08/07 10:56:07;;;;;;;10.35;2.60;;;18.30;99.90;;;;;;6277359;22;20016;-86
2023/08/07 10:58:37;;;;;;;10.98;2.60;;;17.80;99.90;;;;;;6278376;22;20016;-88
2023/08/07 11:01:21;;;;;;;10.93;2.47;;;17.80;99.90;;;;;;6304253;22;20026;-84
2023/08/07 11:03:51;;;;;;;8.20;2.25;;;17.70;99.90;;;;;;6305048;22;20012;-84
2023/08/07 11:06:21;;;;;;;8.02;2.38;;;17.60;99.90;;;;;;6278490;22;20054;-84
2023/08/07 11:08:48;;;;;;;9.23;2.22;;;17.60;99.90;;;;;;6306747;22;20012;-86
2023/08/07 11:11:14;;;;;;;10.38;2.42;;;17.70;99.90;;;;;;6304103;22;20140;-84
2023/08/07 11:13:39;;;;;;;11.32;2.67;;;17.60;99.90;;;;;;6280166;22;20080;-85
2023/08/07 11:16:08;;;;;;;12.55;3.03;;;17.90;99.90;;;;;;6280743;22;20015;-85
2023/08/07 11:18:35;;;;;;;9.63;2.63;;;18.20;99.90;;;;;;6307346;22;20015;-86
2023/08/07 11:21:01;;;;;;;12.32;2.75;;;17.80;99.90;;;;;;6306434;22;20443;-86
2023/08/07 11:23:28;;;;;;;8.75;2.60;;;17.60;99.90;;;;;;6306997;22;20050;-84
2023/08/07 11:29:18;;;;;;;11.95;2.85;;;17.50;99.90;;;;;;6301405;22;20022;-84
2023/08/07 11:31:43;;;;;;;10.07;2.50;;;16.90;99.90;;;;;;6279000;22;20007;-84
2023/08/07 11:34:22;;;;;;;9.18;2.50;;;16.90;99.90;;;;;;6280477;22;20110;-83
2023/08/07 11:36:48;;;;;;;9.40;3.05;;;16.70;99.90;;;;;;6280010;22;20050;-84
2023/08/07 11:39:14;;;;;;;9.38;2.45;;;17.00;99.90;;;;;;6307292;22;20015;-82
2023/08/07 11:41:40;;;;;;;9.65;2.50;;;16.60;99.90;;;;;;6307241;22;20019;-82
2023/08/07 11:44:08;;;;;;;9.63;2.63;;;16.80;99.90;;;;;;6280196;22;20026;-84
2023/08/07 11:46:34;;;;;;;9.90;2.40;;;16.90;99.90;;;;;;6306987;22;20025;-83
2023/08/07 11:49:00;;;;;;;10.77;2.35;;;17.30;99.90;;;;;;6305729;22;20401;-82
2023/08/07 11:51:35;;;;;;;9.60;2.80;;;17.80;99.90;;;;;;6306611;22;20026;-83
2023/08/07 11:54:02;;;;;;;9.02;2.30;;;18.20;99.90;;;;;;6307817;22;20086;-82
2023/08/07 11:56:28;;;;;;;7.97;2.60;;;18.30;99.90;;;;;;6306085;22;20060;-82
2023/08/07 11:59:03;;;;;;;8.45;2.10;;;18.20;99.90;;;;;;6278865;22;20106;-82
2023/08/07 12:01:45;;;;;;;16.50;3.08;;;18.10;99.90;;;;;;6308005;22;20023;-82
2023/08/07 12:04:35;;;;;;;8.02;2.30;;;18.00;99.90;;;;;;6307461;22;20436;-83
2023/08/07 12:07:00;;;;;;;8.23;2.20;;;18.30;99.90;;;;;;6307397;22;20045;-82
2023/08/07 12:12:37;;;;;;;8.85;2.13;;;18.30;99.90;;;;;;6278718;22;20047;-83
2023/08/07 12:15:18;;;;;;;6.82;1.92;;;18.30;99.90;;;;;;6280191;22;20348;-83
2023/08/07 12:18:02;;;;;;;9.13;2.30;;;18.30;99.90;;;;;;6307537;22;20011;-84
2023/08/07 12:20:41;;;;;;;9.27;2.17;;;18.20;99.90;;;;;;6307256;22;20026;-84
2023/08/07 12:23:20;;;;;;;8.63;2.30;;;18.30;99.90;;;;;;6280162;22;20012;-84
2023/08/07 12:25:55;;;;;;;8.45;2.17;;;18.30;99.90;;;;;;6279932;22;20047;-84
2023/08/07 12:28:39;;;;;;;7.50;2.00;;;18.90;99.90;;;;;;6306834;22;20083;-83
2023/08/07 12:31:26;;;;;;;8.38;2.50;;;18.50;99.90;;;;;;6306838;22;20027;-83
2023/08/07 12:34:17;;;;;;;10.45;2.55;;;18.70;99.90;;;;;;6278626;22;20026;-84
2023/08/07 12:36:49;;;;;;;7.57;2.05;;;18.70;99.90;;;;;;6279930;22;20020;-83
2023/08/07 12:39:23;;;;;;;7.63;2.33;;;18.80;99.90;;;;;;6306241;22;20022;-83
2023/08/07 12:41:57;;;;;;;7.18;1.98;;;18.40;99.90;;;;;;6305693;22;20026;-83
2023/08/07 12:44:26;;;;;;;8.30;2.10;;;18.50;99.90;;;;;;6279603;22;20023;-83
2023/08/07 12:46:55;;;;;;;10.85;4.15;;;18.50;99.90;;;;;;6279569;22;20015;-83
2023/08/07 12:53:14;;;;;;;8.75;2.30;;;18.10;99.90;;;;;;6307498;22;20454;-84
2023/08/07 12:56:01;;;;;;;9.25;2.28;;;17.90;99.90;;;;;;6278667;22;20015;-84
2023/08/07 12:58:34;;;;;;;8.93;2.40;;;17.70;99.90;;;;;;6280252;22;20017;-83
2023/08/07 13:01:12;;;;;;;8.05;2.38;;;17.50;99.90;;;;;;6306567;22;20446;-84
2023/08/07 13:03:38;;;;;;;10.35;2.70;;;17.50;99.90;;;;;;6278348;22;20015;-84
2023/08/07 13:06:07;;;;;;;8.32;2.10;;;17.60;99.90;;;;;;6279512;22;20022;-84
2023/08/07 13:08:39;;;;;;;10.85;2.33;;;17.60;99.90;;;;;;6279706;22;20026;-83
2023/08/07 13:11:06;;;;;;;9.80;2.20;;;17.60;99.90;;;;;;6278417;22;20011;-83
2023/08/07 13:13:31;;;;;;;9.73;2.95;;;17.80;99.90;;;;;;6307273;22;20022;-83
2023/08/07 13:15:57;;;;;;;10.68;2.42;;;17.80;99.90;;;;;;6305651;22;20011;-84
2023/08/07 13:18:26;;;;;;;8.02;2.53;;;17.80;99.90;;;;;;6307453;22;20015;-84
2023/08/07 13:20:56;;;;;;;8.52;2.05;;;17.60;99.90;;;;;;6278979;22;20054;-83
2023/08/07 13:23:31;;;;;;;6.65;1.95;;;17.50;99.90;;;;;;6306373;22;20026;-83
2023/08/07 13:25:59;;;;;;;7.95;2.40;;;17.50;99.90;;;;;;6306339;22;20064;-82
2023/08/07 13:29:12;;;;;;;9.52;2.55;;;17.60;99.90;;;;;;6278345;22;20026;-85
2023/08/07 13:34:40;;;;;;;7.65;2.17;;;17.40;99.90;;;;;;6233013;22;20063;-85
2023/08/07 13:37:20;;;;;;;7.47;2.20;;;17.10;99.90;;;;;;6306765;22;20032;-85
2023/08/07 13:40:11;;;;;;;7.60;2.10;;;17.40;99.90;;;;;;6279192;22;20443;-84
2023/08/07 13:42:54;;;;;;;8.43;2.10;;;17.40;99.90;;;;;;6278537;22;20366;-85
2023/08/07 13:45:25;;;;;;;7.38;2.17;;;17.90;99.90;;;;;;6278645;22;20011;-84
2023/08/07 13:48:18;;;;;;;7.38;2.10;;;17.90;99.90;;;;;;6278742;22;20062;-84
2023/08/07 13:50:44;;;;;;;7.55;2.10;;;17.60;99.90;;;;;;6156044;23;20080;-83
2023/08/07 13:53:19;;;;;;;6.50;2.10;;;17.60;99.90;;;;;;6156195;23;20473;-83
2023/08/07 13:55:48;;;;;;;8.80;2.25;;;17.50;99.90;;;;;;6156393;23;20023;-83
2023/08/07 13:58:19;;;;;;;7.43;2.35;;;17.40;99.90;;;;;;6181375;23;20769;-84
2023/08/07 14:00:48;;;;;;;9.35;2.45;;;17.50;99.90;;;;;;6181679;23;20373;-83
2023/08/07 14:03:16;;;;;;;8.25;2.75;;;17.60;99.90;;;;;;6156682;23;20359;-83
2023/08/07 14:05:48;;;;;;;9.95;2.85;;;17.60;99.90;;;;;;6179953;23;20113;-83
2023/08/07 14:08:13;;;;;;;8.52;2.80;;;17.50;99.90;;;;;;6157268;23;20091;-82
2023/08/07 14:10:51;;;;;;;10.30;2.50;;;17.40;99.90;;;;;;6224301;22;20053;-83
2023/08/07 14:13:17;;;;;;;8.63;2.60;;;17.70;99.90;;;;;;6280387;22;20028;-82
2023/08/07 14:15:42;;;;;;;10.05;2.67;;;17.50;99.90;;;;;;6308689;22;20019;-83
2023/08/07 14:18:17;;;;;;;10.43;2.90;;;17.50;99.90;;;;;;6306982;22;20019;-82
2023/08/07 14:25:38;;;;;;;9.95;2.78;;;17.90;99.90;;;;;;6205998;22;20018;-83
2023/08/07 14:31:28;;;;;;;8.45;2.85;;;18.80;99.90;;;;;;6181264;23;20021;-83
2023/08/07 14:33:53;;;;;;;10.52;2.88;;;18.40;99.90;;;;;;6155985;23;20334;-83
2023/08/07 14:36:19;;;;;;;9.30;3.08;;;18.00;99.90;;;;;;6231798;22;20103;-83
2023/08/07 14:38:48;;;;;;;10.18;2.92;;;17.80;99.90;;;;;;6277621;22;20019;-85
2023/08/07 14:41:20;;;;;;;9.38;2.80;;;17.50;99.90;;;;;;6305743;22;20047;-83
2023/08/07 14:43:46;;;;;;;10.10;3.00;;;17.20;99.90;;;;;;6306497;22;20014;-82
2023/08/07 14:46:13;;;;;;;10.25;2.83;;;17.40;99.90;;;;;;6307959;22;20020;-82
2023/08/07 14:48:38;;;;;;;9.65;2.80;;;17.10;99.90;;;;;;6307016;22;20018;-82
2023/08/07 14:51:05;;;;;;;10.50;2.80;;;17.10;99.90;;;;;;6281163;22;20339;-82
2023/08/07 14:53:31;;;;;;;9.68;3.03;;;16.80;99.90;;;;;;6280754;22;20030;-82
2023/08/07 14:55:56;;;;;;;9.02;3.08;;;16.70;99.90;;;;;;6279937;22;20011;-82
2023/08/07 15:01:46;;;;;;;11.93;3.00;;;17.10;99.90;;;;;;6276620;22;20851;-81
2023/08/07 15:04:24;;;;;;;9.65;2.90;;;17.60;99.90;;;;;;6277287;22;20041;-80
2023/08/07 15:07:12;;;;;;;9.45;2.65;;;17.50;99.90;;;;;;6278566;22;20025;-81
2023/08/07 15:10:11;;;;;;;10.63;2.85;;;17.50;99.90;;;;;;6277336;22;20022;-80
2023/08/07 15:12:36;;;;;;;11.10;3.00;;;17.30;99.90;;;;;;6212623;22;20340;-81
2023/08/07 15:15:02;;;;;;;17.40;2.80;;;17.60;99.90;;;;;;6306639;22;20477;-81
2023/08/07 15:17:43;;;;;;;10.18;2.78;;;17.20;99.90;;;;;;6277184;22;20011;-82
2023/08/07 15:20:50;;;;;;;11.13;3.05;;;17.00;99.90;;;;;;6279530;22;20015;-82
2023/08/07 15:23:30;;;;;;;9.90;2.80;;;16.80;99.90;;;;;;6188362;22;20013;-82
2023/08/07 15:25:56;;;;;;;9.65;2.92;;;16.90;99.90;;;;;;6279643;22;20015;-81
2023/08/07 15:28:39;;;;;;;10.20;2.70;;;16.80;99.90;;;;;;6280546;22;20393;-82
2023/08/07 15:31:22;;;;;;;8.63;2.90;;;16.70;99.90;;;;;;6278275;22;20015;-81
2023/08/07 15:33:52;;;;;;;7.68;2.30;;;17.10;99.90;;;;;;6279323;22;20343;-81
2023/08/07 15:36:18;;;;;;;8.02;2.30;;;16.80;99.90;;;;;;6280518;22;20348;-82
2023/08/07 15:38:51;;;;;;;7.85;2.60;;;17.20;99.90;;;;;;6278471;22;20019;-82
2023/08/07 15:41:16;;;;;;;8.65;2.20;;;17.70;99.90;;;;;;6280398;22;20339;-81
2023/08/07 15:43:42;;;;;;;9.57;2.40;;;17.90;99.90;;;;;;6305722;22;20026;-81
2023/08/07 15:46:10;;;;;;;9.10;2.40;;;17.90;99.90;;;;;;6307304;22;20058;-83
2023/08/07 15:48:35;;;;;;;8.05;2.50;;;17.70;99.90;;;;;;6280126;22;20491;-81
2023/08/07 15:51:01;;;;;;;9.20;2.45;;;17.50;99.90;;;;;;6279624;22;20055;-81
2023/08/07 15:53:27;;;;;;;10.73;2.30;;;17.40;99.90;;;;;;6308147;22;20011;-82
2023/08/07 15:55:53;;;;;;;8.98;2.45;;;17.20;99.90;;;;;;6307283;22;20018;-83
2023/08/07 15:58:19;;;;;;;9.18;2.45;;;17.10;99.90;;;;;;6306337;22;20386;-83
2023/08/07 16:00:44;;;;;;;9.65;2.40;;;17.20;99.90;;;;;;6307508;22;20011;-82
2023/08/07 16:03:10;;;;;;;7.93;2.33;;;17.10;99.90;;;;;;6308091;22;20015;-82
2023/08/07 16:05:39;;;;;;;11.68;2.45;;;17.20;99.90;;;;;;6278873;22;20014;-83
2023/08/07 16:08:05;;;;;;;10.32;2.58;;;17.20;99.90;;;;;;6279861;22;20041;-82
2023/08/07 16:10:32;;;;;;;9.15;2.50;;;17.30;99.90;;;;;;6305409;22;20094;-84
2023/08/07 16:12:58;;;;;;;17.50;3.20;;;17.40;99.90;;;;;;6279013;22;20384;-82
2023/08/07 16:15:24;;;;;;;6.53;2.00;;;17.50;99.90;;;;;;6280294;22;20045;-83
2023/08/07 16:17:51;;;;;;;11.68;2.30;;;17.40;99.90;;;;;;6279517;22;20009;-83
2023/08/07 16:20:17;;;;;;;11.23;2.00;;;17.30;99.90;;;;;;6306591;22;20011;-84
2023/08/07 16:22:43;;;;;;;8.38;2.22;;;17.40;99.90;;;;;;6279190;22;20007;-81
2023/08/07 16:25:09;;;;;;;8.20;2.10;;;17.50;99.90;;;;;;6307672;22;20542;-80
2023/08/07 16:27:34;;;;;;;7.32;2.10;;;17.40;99.90;;;;;;6306500;22;20031;-81
2023/08/07 16:30:04;;;;;;;8.13;2.13;;;17.70;99.90;;;;;;6307283;22;20107;-80
2023/08/07 16:32:31;;;;;;;8.02;2.20;;;17.30;99.90;;;;;;6307640;22;20012;-80
2023/08/07 16:34:58;;;;;;;9.18;2.00;;;17.20;99.90;;;;;;6304548;22;20030;-80
2023/08/07 16:37:26;;;;;;;7.22;2.15;;;17.20;99.90;;;;;;6279865;22;20019;-80
2023/08/07 16:39:51;;;;;;;11.82;2.20;;;17.10;99.90;;;;;;6278619;22;20755;-80
2023/08/07 16:42:17;;;;;;;8.57;2.30;;;17.10;99.90;;;;;;6307447;22;20011;-80
2023/08/07 16:44:43;;;;;;;9.23;2.55;;;17.00;99.90;;;;;;6279760;22;20331;-80
2023/08/07 16:47:08;;;;;;;8.30;2.30;;;16.90;99.90;;;;;;6306721;22;20428;-80
2023/08/07 16:49:35;;;;;;;6.82;2.10;;;16.70;99.90;;;;;;6306711;22;20019;-80
2023/08/07 16:52:00;;;;;;;8.55;2.17;;;16.60;99.90;;;;;;6306985;22;20011;-80
2023/08/07 16:54:26;;;;;;;9.43;2.30;;;16.40;99.90;;;;;;6278454;22;20050;-81
2023/08/07 16:56:53;;;;;;;7.93;2.42;;;16.60;99.90;;;;;;6279432;22;20019;-80
2023/08/07 16:59:18;;;;;;;10.15;2.17;;;16.80;99.90;;;;;;6307294;22;20015;-81
2023/08/07 17:01:44;;;;;;;8.48;2.20;;;16.80;99.90;;;;;;6278143;22;20330;-81
2023/08/07 17:04:10;;;;;;;8.50;2.10;;;16.50;99.90;;;;;;6279844;22;20015;-81
2023/08/07 17:06:38;;;;;;;8.45;2.15;;;16.50;99.90;;;;;;6306320;22;20026;-81
2023/08/07 17:09:04;;;;;;;10.27;2.28;;;16.50;99.90;;;;;;6277680;22;20007;-81
2023/08/07 17:11:30;;;;;;;10.13;2.30;;;16.40;99.90;;;;;;6306230;22;20015;-80
2023/08/07 17:13:57;;;;;;;7.57;2.00;;;16.60;99.90;;;;;;6279069;22;20026;-80
2023/08/07 17:16:22;;;;;;;9.85;2.58;;;16.50;99.90;;;;;;6277532;22;20462;-80